Accueil
METAR-TAF:

METAR-TAF

Aéroports :

Avignon, France

Aéroport d'Avignon-Provence

latitude: 43-54-26N, longitude: 004-54-07E, altitude: 38 m

Observation

Le bulletin a été fait il y a 43 minutes, à 23:30 UTC
Vent 2 kt de est/sud-est
Température 14°C
Humidité 77%
Pression 1019 hPa
Visibilité 10 km ou plus
pas de nuages en-dessous de 1500 mètres et pas de cumulonimbus.

METAR: LFMV 282330Z AUTO 12002KT CAVOK 14/10 Q1019

Heure: 02:13 (00:13 UTC)

Prévision

Le bulletin a été fait il y a 10 heures et 13 minutes, à 14:00 UTC
Prévision valable du 28 à 15 UTC au 29 à 15 UTC
Vent 10 kt de sud/sud-ouest
Visibilité 10 km ou plus
pas de nuages en-dessous de 1500 mètres et pas de cumulonimbus.
Evoluant progressivement
du 28 à 15 UTC au 28 à 18 UTC
Vent 5 kt de direction variable
Evoluant progressivement
du 29 à 09 UTC au 29 à 12 UTC
Vent 10 kt de sud/sud-ouest

TAF: LFMV 281400Z 2815/2915 20010KT CAVOK BECMG 2815/2818 VRB05KT BECMG 2909/2912 20010KT

Observations et prévisions météorologiques de plus de 4000 aéroports (messages METAR et TAF).

Les stations disponibles sont représentées par des disques jaunes et rouges sur la carte.

Passer la souris dessus pour voir le nom de la station.

Cliquer dessus pour voir les observations et prévisions météorologiques.

Pour changer de carte: cliquez sur les boutons verts avec une croix noire pour zoomer, sur le bouton vert avec un tiret pour effectuer un zoom arrière, ou sur les flèches vertes pour les cartes adjacentes.


METAR-TAF: